Time;durP1;ratioP1;P1;durP2;ratioP2;P2;SDS_P1;SDS_P2;PMS_P1;PMS_P2;Temp;Humidity;BMP_temperature;BMP_pressure;BME280_temperature;BME280_humidity;BME280_pressure;Samples;Min_cycle;Max_cycle;Signal;HPM_P1;HPM_P2
2022/01/14 00:00:15;;;;;;;48.30;21.52;;;;;;;-7.53;70.16;94583.78;5114659;28;20026;-39
2022/01/14 00:02:40;;;;;;;43.83;20.52;;;;;;;-7.46;70.49;94584.44;5114645;28;20389;-39
2022/01/14 00:05:06;;;;;;;45.95;22.50;;;;;;;-7.37;70.80;94592.75;5114637;28;20471;-39
2022/01/14 00:07:31;;;;;;;54.75;25.35;;;;;;;-7.23;70.80;94600.56;5114481;28;20019;-39
2022/01/14 00:09:57;;;;;;;47.15;23.35;;;;;;;-7.23;68.67;94583.69;5114239;28;20088;-40
2022/01/14 00:12:27;;;;;;;43.20;21.13;;;;;;;-7.29;68.48;94575.38;5114472;28;20034;-40
2022/01/14 00:15:23;;;;;;;44.63;20.42;;;;;;;-7.12;68.70;94581.63;5114342;27;20019;-39
2022/01/14 00:17:47;;;;;;;46.28;21.88;;;;;;;-7.04;68.50;94588.41;5113870;28;20047;-39
2022/01/14 00:20:12;;;;;;;42.08;19.77;;;;;;;-7.16;66.67;94586.28;5114282;28;20020;-39
2022/01/14 00:22:38;;;;;;;45.03;22.92;;;;;;;-7.15;67.80;94598.53;5114115;28;20047;-40
2022/01/14 00:33:08;;;;;;;44.40;20.85;;;;;;;-7.11;67.09;94610.75;5114052;28;20030;-39
2022/01/14 00:35:42;;;;;;;49.38;19.80;;;;;;;-7.05;67.34;94609.09;5113760;28;20030;-40
2022/01/14 00:38:09;;;;;;;46.67;18.60;;;;;;;-7.05;68.41;94598.38;5113693;28;20023;-40
2022/01/14 00:40:34;;;;;;;47.40;20.00;;;;;;;-7.10;67.95;94584.66;5113961;28;20027;-40
2022/01/14 00:43:00;;;;;;;41.03;18.30;;;;;;;-7.13;67.43;94602.34;5113549;28;20263;-39
2022/01/14 00:45:26;;;;;;;40.50;18.88;;;;;;;-7.31;68.02;94609.13;5109518;27;20020;-39
2022/01/14 00:47:51;;;;;;;46.13;20.85;;;;;;;-7.36;68.30;94612.28;5091973;28;20020;-39
2022/01/14 00:50:18;;;;;;;43.15;20.70;;;;;;;-7.53;70.30;94608.69;5093034;28;20098;-39
2022/01/14 00:52:44;;;;;;;47.72;21.52;;;;;;;-7.36;71.55;94614.97;5092999;28;20020;-40
2022/01/14 00:55:13;;;;;;;36.47;18.08;;;;;;;-7.21;70.97;94605.53;5093002;28;20533;-39
2022/01/14 01:00:18;;;;;;;50.78;18.40;;;;;;;-7.14;68.97;94610.78;5093008;28;20338;-40
2022/01/14 01:02:44;;;;;;;35.78;17.73;;;;;;;-7.03;69.52;94609.47;5092851;28;20024;-40
2022/01/14 01:05:15;;;;;;;40.88;18.50;;;;;;;-7.04;69.49;94610.59;5092998;28;20031;-39
2022/01/14 01:07:42;;;;;;;35.33;16.63;;;;;;;-6.98;69.14;94600.94;5093158;28;20409;-39
2022/01/14 01:10:09;;;;;;;43.65;17.77;;;;;;;-7.07;69.10;94608.00;5092949;28;20024;-39
2022/01/14 01:12:46;;;;;;;34.40;18.15;;;;;;;-7.15;68.54;94601.22;5092715;28;20028;-39
2022/01/14 01:15:15;;;;;;;40.22;17.00;;;;;;;-7.07;69.30;94589.97;5097694;28;20098;-39
2022/01/14 01:17:40;;;;;;;;;;;;;;;-7.16;69.07;94597.00;5113301;28;20051;-40
2022/01/14 01:20:16;;;;;;;33.30;17.75;;;;;;;-7.28;70.13;94586.88;5112916;27;19956;-39
2022/01/14 01:22:41;;;;;;;32.33;16.00;;;;;;;-7.38;70.74;94585.09;5112886;28;20027;-40
2022/01/14 01:25:09;;;;;;;42.90;19.45;;;;;;;-7.36;70.95;94577.44;5113201;28;20019;-39
2022/01/14 01:27:41;;;;;;;32.35;16.77;;;;;;;-7.25;70.73;94580.66;5113136;28;20077;-40
2022/01/14 01:30:14;;;;;;;35.95;17.13;;;;;;;-7.12;71.36;94577.00;5113070;28;20055;-39
2022/01/14 01:32:40;;;;;;;42.90;18.80;;;;;;;-7.09;71.29;94576.22;5113061;28;20102;-39
2022/01/14 01:35:06;;;;;;;45.58;21.13;;;;;;;-6.98;71.59;94567.97;5112655;28;20073;-40
2022/01/14 01:37:32;;;;;;;44.15;18.75;;;;;;;-7.15;72.29;94564.44;5112875;28;20031;-40
2022/01/14 01:39:57;;;;;;;46.63;18.92;;;;;;;-6.97;72.83;94561.41;5112593;28;20374;-39
2022/01/14 01:42:28;;;;;;;36.22;16.35;;;;;;;-6.86;71.27;94566.63;5102157;28;20055;-40
2022/01/14 01:44:53;;;;;;;45.03;20.60;;;;;;;-6.88;70.67;94568.94;5091208;28;20028;-39
2022/01/14 01:47:21;;;;;;;51.58;18.77;;;;;;;-6.88;70.43;94564.34;5092005;28;20095;-40
2022/01/14 01:49:47;;;;;;;33.58;15.88;;;;;;;-6.87;68.91;94557.81;5091884;28;20027;-39
2022/01/14 01:52:12;;;;;;;41.47;17.23;;;;;;;-6.92;69.27;94552.91;5091844;28;20024;-39
2022/01/14 01:54:38;;;;;;;42.65;19.50;;;;;;;-6.87;69.93;94549.00;5092143;28;20145;-39
2022/01/14 01:57:04;;;;;;;46.10;19.50;;;;;;;-6.79;70.36;94537.72;5091699;28;20024;-40
2022/01/14 01:59:30;;;;;;;42.45;19.42;;;;;;;-6.82;71.38;94529.75;5090316;28;20024;-39
2022/01/14 02:01:58;;;;;;;42.60;19.80;;;;;;;-6.78;71.36;94531.19;5091593;28;20115;-39
2022/01/14 02:04:24;;;;;;;45.78;20.45;;;;;;;-6.68;71.86;94530.22;5091623;28;20515;-39
2022/01/14 02:06:52;;;;;;;43.17;20.63;;;;;;;-6.69;71.58;94534.06;5091872;28;20028;-40
2022/01/14 02:09:17;;;;;;;43.30;22.40;;;;;;;-6.70;71.67;94531.81;5091543;28;20394;-40
2022/01/14 02:11:43;;;;;;;45.80;21.90;;;;;;;-6.66;70.60;94527.88;5091745;28;20035;-40
2022/01/14 02:14:25;;;;;;;45.03;20.67;;;;;;;-6.59;70.41;94532.38;5091755;28;20466;-39
2022/01/14 02:17:15;;;;;;;53.63;23.52;;;;;;;-6.79;70.89;94529.66;5094016;28;20508;-39
2022/01/14 02:23:00;;;;;;;39.95;19.55;;;;;;;-6.84;71.78;94527.44;5091743;28;20118;-39
2022/01/14 02:25:29;;;;;;;41.97;17.50;;;;;;;-6.84;70.74;94516.69;5091616;28;20051;-40
2022/01/14 02:28:08;;;;;;;35.20;17.48;;;;;;;-7.00;71.11;94513.94;5091475;28;20031;-40
2022/01/14 02:30:36;;;;;;;36.45;16.58;;;;;;;-7.00;71.26;94503.22;5091073;28;20024;-39
2022/01/14 02:33:01;;;;;;;38.90;16.83;;;;;;;-7.12;71.69;94504.56;5091311;28;20027;-40
2022/01/14 02:35:28;;;;;;;39.75;18.17;;;;;;;-7.07;71.24;94503.31;5091417;28;20429;-40
2022/01/14 02:37:54;;;;;;;44.03;18.85;;;;;;;-6.90;71.64;94491.50;5094800;28;20489;-39
2022/01/14 02:40:20;;;;;;;54.42;22.77;;;;;;;-6.89;71.20;94489.59;5110251;28;20018;-40
2022/01/14 02:42:48;;;;;;;38.88;18.70;;;;;;;-6.85;71.95;94493.72;5111259;28;20027;-39
2022/01/14 02:45:14;;;;;;;52.70;21.92;;;;;;;-6.85;70.84;94496.41;5111186;28;20030;-39
2022/01/14 02:47:39;;;;;;;40.05;18.23;;;;;;;-6.84;70.29;94489.13;5111232;27;20027;-39
2022/01/14 02:50:09;;;;;;;76.18;29.40;;;;;;;-6.89;70.62;94478.84;5111031;28;20055;-40
2022/01/14 02:55:18;;;;;;;47.88;20.58;;;;;;;-6.82;70.22;94471.41;5111444;28;20031;-40
2022/01/14 02:57:45;;;;;;;41.78;19.30;;;;;;;-6.73;68.48;94485.03;5110018;28;20114;-40
2022/01/14 03:00:12;;;;;;;32.75;17.00;;;;;;;-6.91;68.92;94479.28;5111314;28;20477;-40
2022/01/14 03:02:42;;;;;;;45.47;17.55;;;;;;;-7.05;69.63;94480.28;5110156;28;20408;-40
2022/01/14 03:05:08;;;;;;;59.08;22.42;;;;;;;-7.57;70.19;94454.38;5111616;28;20016;-40
2022/01/14 03:07:34;;;;;;;50.55;22.60;;;;;;;-7.66;70.84;94468.31;5111282;28;20027;-39
2022/01/14 03:10:00;;;;;;;58.97;26.25;;;;;;;-7.52;72.16;94448.56;5109638;28;20024;-40
2022/01/14 03:12:26;;;;;;;60.38;24.73;;;;;;;-7.58;71.77;94459.00;5110279;28;20023;-40
2022/01/14 03:14:53;;;;;;;63.80;24.05;;;;;;;-7.56;71.38;94455.91;5111088;28;20115;-40
2022/01/14 03:17:19;;;;;;;46.13;21.98;;;;;;;-7.55;72.42;94449.34;5089976;28;20097;-39
2022/01/14 03:19:46;;;;;;;44.22;20.52;;;;;;;-7.60;71.61;94450.59;5090691;28;20093;-40
2022/01/14 03:22:28;;;;;;;64.35;26.90;;;;;;;-7.58;72.53;94452.88;5090381;28;20048;-40
2022/01/14 03:27:19;;;;;;;51.63;27.02;;;;;;;-7.55;71.52;94446.69;5090418;28;20513;-39
2022/01/14 03:29:45;;;;;;;65.13;25.50;;;;;;;-7.64;71.63;94449.16;5090203;28;20024;-40
2022/01/14 03:32:11;;;;;;;53.72;25.73;;;;;;;-7.72;72.15;94446.59;5090568;28;20085;-39
2022/01/14 03:34:36;;;;;;;45.65;23.13;;;;;;;-7.79;71.73;94437.88;5098221;28;20504;-40
2022/01/14 03:37:02;;;;;;;49.10;24.23;;;;;;;-7.63;70.89;94429.97;5110822;28;20016;-40
2022/01/14 03:39:28;;;;;;;46.63;22.25;;;;;;;-7.66;70.08;94419.28;5110608;28;20106;-39
2022/01/14 03:41:53;;;;;;;48.10;21.38;;;;;;;-7.92;71.41;94424.31;5110487;28;20107;-39
2022/01/14 03:44:19;;;;;;;43.83;19.90;;;;;;;-7.88;72.54;94433.03;5110537;28;20027;-39
2022/01/14 03:46:45;;;;;;;43.92;19.85;;;;;;;-8.08;72.43;94420.75;5110506;28;20477;-40
2022/01/14 03:49:11;;;;;;;46.78;19.85;;;;;;;-8.09;73.05;94425.34;5110396;28;20030;-40
2022/01/14 03:51:37;;;;;;;43.38;18.92;;;;;;;-8.04;73.14;94422.22;5110416;28;20545;-39
2022/01/14 03:54:02;;;;;;;48.28;20.15;;;;;;;-8.11;73.18;94427.66;5110649;28;20094;-40
2022/01/14 03:56:28;;;;;;;43.38;20.48;;;;;;;-8.14;73.70;94425.78;5110427;28;20404;-40
2022/01/14 03:58:54;;;;;;;51.22;21.58;;;;;;;-8.13;73.47;94415.84;5110625;28;20473;-39
2022/01/14 04:01:20;;;;;;;52.20;21.20;;;;;;;-8.18;72.22;94429.69;5110359;28;20512;-39
2022/01/14 04:03:47;;;;;;;43.90;21.77;;;;;;;-8.28;73.08;94430.63;5110363;28;20039;-39
2022/01/14 04:06:14;;;;;;;42.92;21.55;;;;;;;-8.14;71.92;94425.06;5110546;28;20435;-39
2022/01/14 04:08:40;;;;;;;46.33;20.95;;;;;;;-8.27;72.04;94422.19;5110247;28;20058;-39
2022/01/14 04:11:07;;;;;;;51.83;23.92;;;;;;;-8.42;72.71;94420.88;5110288;28;20026;-40
2022/01/14 04:13:46;;;;;;;55.97;24.63;;;;;;;-8.44;72.31;94415.16;5109086;28;20015;-40
2022/01/14 04:16:12;;;;;;;50.08;24.85;;;;;;;-8.49;72.50;94415.66;5108837;28;20030;-39
2022/01/14 04:18:38;;;;;;;64.32;26.65;;;;;;;-8.59;73.14;94419.22;5110088;28;20047;-39
2022/01/14 04:21:04;;;;;;;62.80;26.27;;;;;;;-8.51;72.80;94415.28;5110069;28;20020;-39
2022/01/14 04:23:30;;;;;;;79.07;25.95;;;;;;;-8.62;73.00;94414.69;5112897;28;20020;-39
2022/01/14 04:25:56;;;;;;;51.53;24.55;;;;;;;-8.65;73.67;94418.16;5114212;28;20038;-39
2022/01/14 04:28:27;;;;;;;49.17;24.17;;;;;;;-8.78;73.54;94419.84;5114134;28;20462;-39
2022/01/14 04:30:56;;;;;;;54.90;23.10;;;;;;;-8.57;73.64;94419.56;5113871;28;20022;-39
2022/01/14 04:33:26;;;;;;;56.67;25.00;;;;;;;-8.76;74.45;94420.19;5112633;28;20023;-39
2022/01/14 04:35:54;;;;;;;58.50;24.85;;;;;;;-8.61;74.17;94413.50;5113732;28;20401;-40
2022/01/14 04:38:20;;;;;;;64.20;27.63;;;;;;;-8.65;73.42;94416.22;5113735;28;20041;-39
2022/01/14 04:40:46;;;;;;;49.63;22.83;;;;;;;-8.56;72.75;94408.47;5114033;27;20023;-39
2022/01/14 04:43:15;;;;;;;52.05;24.65;;;;;;;-8.56;73.38;94413.06;5113673;28;20420;-40
2022/01/14 04:45:53;;;;;;;52.65;24.42;;;;;;;-8.60;73.12;94413.09;5113923;28;20496;-39
2022/01/14 04:48:19;;;;;;;59.88;26.33;;;;;;;-8.79;73.00;94415.66;5113617;28;20424;-39
2022/01/14 04:50:44;;;;;;;64.45;26.83;;;;;;;-8.66;72.52;94416.63;5113445;28;20043;-40
2022/01/14 04:53:10;;;;;;;52.28;27.63;;;;;;;-8.62;73.45;94410.06;5113504;28;20055;-40
2022/01/14 04:55:36;;;;;;;61.55;26.10;;;;;;;-8.80;72.87;94403.44;5113400;28;20026;-39
2022/01/14 04:58:03;;;;;;;60.70;26.42;;;;;;;-8.81;73.29;94397.31;5113332;28;20111;-40
2022/01/14 05:00:28;;;;;;;68.05;30.10;;;;;;;-8.69;72.96;94393.34;5113722;28;20023;-39
2022/01/14 05:02:55;;;;;;;55.17;27.38;;;;;;;-8.55;71.90;94401.94;5113556;28;20100;-39
2022/01/14 05:05:23;;;;;;;74.97;29.42;;;;;;;-8.84;72.47;94390.13;5113325;28;20049;-39
2022/01/14 05:07:51;;;;;;;73.30;30.73;;;;;;;-8.80;73.03;94390.06;5113832;28;20454;-39
2022/01/14 05:10:34;;;;;;;73.03;29.93;;;;;;;-8.72;72.55;94392.22;5113392;28;20404;-39
2022/01/14 05:13:01;;;;;;;61.50;26.15;;;;;;;-8.75;72.41;94374.28;5113161;28;20354;-39
2022/01/14 05:15:27;;;;;;;67.93;27.58;;;;;;;-8.78;72.49;94403.78;5104800;28;20020;-39
2022/01/14 05:17:52;;;;;;;53.85;25.20;;;;;;;-9.08;73.12;94385.06;5092479;28;20481;-39
2022/01/14 05:20:19;;;;;;;47.33;22.75;;;;;;;-8.88;73.75;94389.38;5092581;28;20074;-39
2022/01/14 05:22:45;;;;;;;49.67;21.80;;;;;;;-8.88;73.65;94402.75;5092751;28;20081;-39
2022/01/14 05:25:13;;;;;;;44.00;21.38;;;;;;;-8.79;73.22;94399.63;5092722;28;20488;-39
2022/01/14 05:27:38;;;;;;;61.05;26.90;;;;;;;-8.82;73.56;94405.75;5104763;28;20042;-41
2022/01/14 05:30:05;;;;;;;64.35;27.98;;;;;;;-8.74;73.37;94407.19;5112928;28;20032;-39
2022/01/14 05:32:31;;;;;;;55.22;22.90;;;;;;;-8.71;72.73;94406.38;5112721;28;20339;-39
2022/01/14 05:34:57;;;;;;;58.58;27.70;;;;;;;-8.82;73.24;94392.38;5112444;28;20028;-39
2022/01/14 05:37:22;;;;;;;56.03;25.45;;;;;;;-8.79;73.34;94395.00;5112931;28;20492;-39
2022/01/14 05:39:48;;;;;;;61.25;28.20;;;;;;;-8.86;73.44;94386.31;5112592;28;20462;-39
2022/01/14 05:42:13;;;;;;;50.75;24.42;;;;;;;-8.97;73.42;94385.69;5112452;28;20030;-40
2022/01/14 05:44:39;;;;;;;56.90;27.23;;;;;;;-9.13;73.30;94380.16;5112494;28;20046;-39
2022/01/14 05:47:05;;;;;;;63.75;28.80;;;;;;;-9.08;73.41;94379.72;5112636;28;20080;-39
2022/01/14 05:49:31;;;;;;;57.88;22.00;;;;;;;-9.21;73.46;94363.44;5112241;28;20031;-39
2022/01/14 05:51:56;;;;;;;47.70;23.42;;;;;;;-9.25;74.77;94357.38;5112280;28;20077;-39
2022/01/14 05:54:23;;;;;;;47.00;20.40;;;;;;;-9.06;74.61;94350.66;5112301;28;20023;-40
2022/01/14 05:56:48;;;;;;;73.43;28.98;;;;;;;-8.87;74.78;94366.06;5111367;28;20477;-39
2022/01/14 05:59:14;;;;;;;54.80;23.17;;;;;;;-8.88;74.33;94341.22;5112206;28;20023;-39
2022/01/14 06:01:40;;;;;;;130.48;50.25;;;;;;;-8.56;74.56;94378.25;5112102;28;20084;-39
2022/01/14 06:04:06;;;;;;;42.70;17.85;;;;;;;-8.50;74.16;94360.56;5112031;28;20028;-39
2022/01/14 06:06:32;;;;;;;37.13;17.80;;;;;;;-8.43;74.20;94359.72;5112046;28;20062;-39
2022/01/14 06:08:58;;;;;;;50.67;24.17;;;;;;;-8.42;73.99;94361.97;5112148;28;20122;-39
2022/01/14 06:11:24;;;;;;;65.25;25.20;;;;;;;-8.45;74.27;94343.28;5111933;28;20476;-40
2022/01/14 06:13:50;;;;;;;68.32;28.13;;;;;;;-8.20;73.92;94365.81;5111822;28;20115;-39
2022/01/14 06:16:15;;;;;;;51.92;26.38;;;;;;;-7.98;74.24;94364.31;5099681;28;20111;-39
2022/01/14 06:18:41;;;;;;;54.13;22.33;;;;;;;-8.25;74.39;94360.91;5091369;28;20059;-39
2022/01/14 06:21:07;;;;;;;56.35;23.33;;;;;;;-8.28;75.22;94332.31;5091258;28;20489;-39
2022/01/14 06:23:33;;;;;;;67.88;31.02;;;;;;;-7.95;75.83;94360.78;5100651;28;20084;-40
2022/01/14 06:25:59;;;;;;;39.20;18.23;;;;;;;-7.74;75.95;94348.97;5111566;28;20023;-39
2022/01/14 06:28:24;;;;;;;38.83;16.88;;;;;;;-7.62;76.17;94355.66;5111516;28;20030;-39
2022/01/14 06:30:50;;;;;;;38.75;18.65;;;;;;;-7.50;75.47;94353.13;5111587;28;20035;-39
2022/01/14 06:33:16;;;;;;;52.55;22.05;;;;;;;-7.45;75.92;94351.91;5111757;28;20023;-40
2022/01/14 06:35:41;;;;;;;38.22;14.90;;;;;;;-7.48;75.80;94348.09;5111552;28;20023;-40
2022/01/14 06:38:07;;;;;;;38.80;19.55;;;;;;;-7.49;76.41;94353.88;5111643;28;20111;-39
2022/01/14 06:40:33;;;;;;;47.22;21.10;;;;;;;-7.50;76.69;94355.03;5111399;28;20165;-40
2022/01/14 06:42:59;;;;;;;43.08;17.85;;;;;;;-7.20;76.44;94344.88;5111604;28;20042;-39
2022/01/14 06:45:25;;;;;;;48.33;20.17;;;;;;;-7.17;76.62;94311.09;5111068;28;20472;-40
2022/01/14 06:47:51;;;;;;;38.88;18.15;;;;;;;-6.93;76.54;94329.34;5110882;28;20023;-39
2022/01/14 06:50:17;;;;;;;43.50;19.75;;;;;;;-6.72;75.23;94328.16;5111105;28;20031;-39
2022/01/14 06:52:43;;;;;;;47.13;20.63;;;;;;;-6.62;74.02;94339.81;5111187;28;20024;-40
2022/01/14 06:55:09;;;;;;;54.47;25.42;;;;;;;-6.50;73.90;94323.81;5111109;28;20103;-39
2022/01/14 06:57:36;;;;;;;43.83;20.33;;;;;;;-6.58;74.28;94319.78;5110999;27;20051;-39
2022/01/14 07:00:07;;;;;;;54.63;22.58;;;;;;;-6.38;73.17;94317.78;5111062;28;20511;-39
2022/01/14 07:02:33;;;;;;;53.80;23.35;;;;;;;-6.26;73.85;94322.47;5110991;28;20034;-39
2022/01/14 07:04:58;;;;;;;41.53;19.20;;;;;;;-6.26;73.90;94319.78;5111040;28;20027;-39
2022/01/14 07:07:24;;;;;;;41.92;17.77;;;;;;;-6.15;73.13;94313.41;5111178;28;20028;-40
2022/01/14 07:09:58;;;;;;;31.40;15.73;;;;;;;-6.28;72.07;94297.97;5111134;28;20266;-39
2022/01/14 07:12:29;;;;;;;42.05;16.92;;;;;;;-5.91;72.52;94306.69;5111175;28;20027;-39
2022/01/14 07:14:56;;;;;;;36.75;18.42;;;;;;;-5.91;71.45;94283.22;5110736;28;20038;-40
2022/01/14 07:17:22;;;;;;;40.63;19.90;;;;;;;-5.52;71.14;94314.44;5110681;28;20048;-40
2022/01/14 07:19:50;;;;;;;42.67;19.90;;;;;;;-5.42;71.43;94316.09;5101205;28;20077;-40
2022/01/14 07:22:15;;;;;;;41.20;17.67;;;;;;;-5.25;69.67;94317.56;5090359;28;20103;-40
2022/01/14 07:24:41;;;;;;;38.78;18.75;;;;;;;-4.93;69.02;94306.66;5090735;28;20051;-40
2022/01/14 07:27:06;;;;;;;36.03;18.88;;;;;;;-4.76;67.44;94310.00;5090295;28;20481;-40
2022/01/14 07:29:32;;;;;;;43.42;20.52;;;;;;;-4.65;67.13;94308.50;5090321;28;20035;-40
2022/01/14 07:31:58;;;;;;;39.10;19.98;;;;;;;-4.29;66.98;94302.81;5090532;28;20028;-40
2022/01/14 07:34:25;;;;;;;47.00;19.13;;;;;;;-3.88;65.86;94299.91;5090577;28;20024;-40
2022/01/14 07:36:50;;;;;;;48.05;19.52;;;;;;;-3.41;63.47;94307.97;5090536;28;20047;-40
2022/01/14 07:39:18;;;;;;;39.97;19.85;;;;;;;-3.42;63.35;94301.06;5090193;28;20095;-40
2022/01/14 07:41:43;;;;;;;39.03;20.45;;;;;;;-3.44;63.13;94295.34;5090228;28;20062;-40
2022/01/14 07:44:09;;;;;;;47.47;24.30;;;;;;;-3.66;63.40;94299.94;5090464;28;20055;-40
2022/01/14 07:46:35;;;;;;;40.42;19.67;;;;;;;-3.52;63.66;94296.78;5089978;28;20522;-40
2022/01/14 07:49:00;;;;;;;38.53;20.80;;;;;;;-3.24;62.38;94297.72;5090134;28;20032;-40
2022/01/14 07:51:26;;;;;;;37.05;20.15;;;;;;;-3.26;62.24;94298.19;5090384;28;20089;-40
2022/01/14 07:53:51;;;;;;;41.30;21.33;;;;;;;-3.17;62.08;94292.84;5090102;28;20023;-40
2022/01/14 07:56:17;;;;;;;41.08;19.67;;;;;;;-3.25;62.59;94291.56;5090289;28;20099;-40
2022/01/14 07:58:42;;;;;;;39.15;19.33;;;;;;;-3.35;62.80;94260.31;5093492;28;20105;-40
2022/01/14 08:01:09;;;;;;;40.92;19.23;;;;;;;-3.27;63.16;94275.06;5094332;28;20051;-40
2022/01/14 08:03:34;;;;;;;36.33;17.48;;;;;;;-3.22;62.59;94273.75;5094242;28;20099;-40
2022/01/14 08:06:01;;;;;;;31.42;15.40;;;;;;;-3.59;61.51;94261.94;5094030;28;20558;-40
2022/01/14 08:08:28;;;;;;;30.88;17.60;;;;;;;-3.63;62.78;94269.41;5094182;28;20047;-40
2022/01/14 08:10:54;;;;;;;46.22;21.23;;;;;;;-3.61;63.47;94279.75;5094213;28;20047;-40
2022/01/14 08:13:20;;;;;;;33.88;17.15;;;;;;;-3.70;64.17;94269.63;5093832;28;20034;-40
2022/01/14 08:15:45;;;;;;;31.58;16.55;;;;;;;-3.60;65.11;94260.44;5096665;28;20020;-40
2022/01/14 08:18:11;;;;;;;49.10;21.30;;;;;;;-3.53;63.95;94260.19;5093737;28;20119;-40
2022/01/14 08:20:36;;;;;;;44.15;19.17;;;;;;;-3.54;64.73;94253.28;5092501;28;20111;-40
2022/01/14 08:23:02;;;;;;;31.90;16.48;;;;;;;-3.68;65.04;94248.38;5093609;28;20032;-40
2022/01/14 08:25:28;;;;;;;44.00;19.20;;;;;;;-3.63;66.03;94258.59;5093615;28;20042;-40
2022/01/14 08:27:53;;;;;;;32.08;17.10;;;;;;;-3.54;66.18;94260.63;5093805;28;20027;-40
2022/01/14 08:30:19;;;;;;;34.60;16.27;;;;;;;-3.30;65.29;94245.50;5093742;28;20075;-40
2022/01/14 08:32:45;;;;;;;38.90;18.45;;;;;;;-3.55;66.48;94248.34;5093372;28;20031;-41
2022/01/14 08:35:11;;;;;;;32.20;17.48;;;;;;;-3.39;66.37;94243.50;5093390;28;20020;-40
2022/01/14 08:37:38;;;;;;;54.60;21.50;;;;;;;-3.22;66.55;94247.50;5093585;28;20024;-40
2022/01/14 08:40:06;;;;;;;42.05;17.23;;;;;;;-3.18;65.61;94240.03;5093258;28;20023;-41
2022/01/14 08:42:32;;;;;;;38.95;19.83;;;;;;;-3.20;66.62;94236.25;5093400;28;20024;-40
2022/01/14 08:44:58;;;;;;;61.92;20.92;;;;;;;-3.19;66.62;94235.81;5093254;28;20024;-40
2022/01/14 08:47:24;;;;;;;51.38;21.27;;;;;;;-3.09;66.92;94221.16;5093230;28;20110;-40
2022/01/14 08:49:49;;;;;;;38.95;18.92;;;;;;;-2.91;67.17;94238.66;5093062;28;20024;-41
2022/01/14 08:52:15;;;;;;;53.47;20.77;;;;;;;-2.82;66.72;94241.41;5093041;28;20035;-40
2022/01/14 08:54:41;;;;;;;43.90;19.92;;;;;;;-2.66;67.25;94235.75;5093103;28;20027;-41
2022/01/14 08:57:07;;;;;;;42.35;18.92;;;;;;;-2.66;66.69;94225.72;5093222;28;20024;-41
2022/01/14 08:59:33;;;;;;;41.03;19.00;;;;;;;-2.52;67.06;94225.19;5093328;28;20047;-40
2022/01/14 09:01:59;;;;;;;40.53;20.17;;;;;;;-2.48;66.39;94204.16;5093183;28;20489;-40
2022/01/14 09:04:25;;;;;;;43.83;22.00;;;;;;;-2.23;66.71;94215.94;5093100;28;20095;-41
2022/01/14 09:06:50;;;;;;;41.53;20.10;;;;;;;-2.21;66.16;94208.88;5092808;28;20494;-40
2022/01/14 09:09:16;;;;;;;43.95;21.08;;;;;;;-2.23;66.46;94199.72;5092033;28;20225;-41
2022/01/14 09:11:41;;;;;;;45.20;20.10;;;;;;;-2.24;66.17;94198.94;5097213;28;20404;-41
2022/01/14 09:14:07;;;;;;;47.20;21.65;;;;;;;-2.36;66.93;94191.72;5112990;28;20035;-41
2022/01/14 09:16:33;;;;;;;36.13;18.50;;;;;;;-2.23;67.27;94195.03;5095206;28;20060;-41
2022/01/14 09:18:59;;;;;;;39.40;19.67;;;;;;;-2.25;67.85;94189.31;5092450;28;20051;-41
2022/01/14 09:21:24;;;;;;;45.47;22.80;;;;;;;-2.14;67.36;94188.91;5092512;28;20034;-41
2022/01/14 09:24:05;;;;;;;44.83;21.80;;;;;;;-1.97;66.69;94180.03;5091297;28;20024;-41
2022/01/14 09:26:34;;;;;;;32.13;18.20;;;;;;;-1.95;66.76;94169.50;5092495;28;20020;-41
2022/01/14 09:29:00;;;;;;;38.30;19.92;;;;;;;-1.88;67.01;94163.81;5092592;28;20028;-41
2022/01/14 09:31:26;;;;;;;36.05;18.25;;;;;;;-1.96;67.65;94159.13;5092300;28;20028;-41
2022/01/14 09:33:51;;;;;;;38.55;18.65;;;;;;;-1.93;68.67;94150.88;5092600;28;20027;-41
2022/01/14 09:36:17;;;;;;;37.38;16.13;;;;;;;-1.84;68.80;94158.25;5092244;28;20508;-41
2022/01/14 09:38:43;;;;;;;31.25;17.40;;;;;;;-1.72;68.20;94163.50;5092520;28;20103;-40
2022/01/14 09:41:09;;;;;;;40.45;19.27;;;;;;;-1.49;68.00;94153.25;5092097;28;20024;-41
2022/01/14 09:43:38;;;;;;;33.83;18.67;;;;;;;-1.38;67.43;94151.56;5092149;28;20573;-40
2022/01/14 09:46:05;;;;;;;31.85;15.98;;;;;;;-1.31;68.08;94142.38;5092300;28;20028;-41
2022/01/14 09:48:32;;;;;;;34.05;17.13;;;;;;;-1.24;68.23;94142.06;5092380;28;20085;-41
2022/01/14 09:50:57;;;;;;;30.30;15.52;;;;;;;-1.07;67.51;94137.78;5092169;28;20032;-41
2022/01/14 09:53:25;;;;;;;27.42;15.35;;;;;;;-0.84;66.98;94121.56;5092255;28;20459;-41
2022/01/14 09:55:51;;;;;;;29.25;16.83;;;;;;;-0.64;67.18;94128.41;5092183;28;20101;-41
2022/01/14 09:58:17;;;;;;;32.72;16.85;;;;;;;-0.40;66.34;94121.03;5092092;28;20470;-42
2022/01/14 10:00:43;;;;;;;50.85;25.73;;;;;;;-0.24;65.44;94117.94;5091880;28;20099;-42
2022/01/14 10:03:25;;;;;;;39.53;20.80;;;;;;;0.07;64.81;94114.81;5091905;28;20077;-41
2022/01/14 10:05:56;;;;;;;35.85;21.50;;;;;;;0.20;64.66;94109.88;5091683;28;20027;-41
2022/01/14 10:08:26;;;;;;;37.85;18.30;;;;;;;0.21;65.04;94105.94;5099649;28;20033;-41
2022/01/14 10:11:02;;;;;;;30.10;17.77;;;;;;;0.42;63.81;94100.16;5111786;28;20029;-41
2022/01/14 10:13:29;;;;;;;33.60;17.63;;;;;;;0.21;63.99;94097.81;5111887;28;20055;-41
2022/01/14 10:16:05;;;;;;;29.75;17.30;;;;;;;0.16;64.53;94093.78;5102828;28;20053;-41
2022/01/14 10:18:33;;;;;;;32.38;17.77;;;;;;;0.13;64.58;94091.25;5091390;28;20047;-41
2022/01/14 10:21:06;;;;;;;33.08;18.65;;;;;;;0.06;65.70;94081.50;5091218;28;20417;-41
2022/01/14 10:23:51;;;;;;;34.47;17.73;;;;;;;0.46;64.75;94083.66;5091706;28;20024;-41
2022/01/14 10:26:16;;;;;;;29.30;16.35;;;;;;;0.25;64.11;94066.53;5091553;28;20035;-41
2022/01/14 10:28:45;;;;;;;29.10;16.50;;;;;;;0.46;64.14;94072.81;5091190;28;20032;-41
2022/01/14 10:31:11;;;;;;;29.60;16.58;;;;;;;0.55;63.42;94056.41;5091477;28;20036;-41
2022/01/14 10:33:37;;;;;;;27.90;16.38;;;;;;;0.40;63.65;94063.81;5091436;28;20032;-41
2022/01/14 10:36:03;;;;;;;40.58;15.38;;;;;;;0.21;64.34;94062.50;5091415;28;20401;-41
2022/01/14 10:38:46;;;;;;;32.75;16.08;;;;;;;0.02;65.30;94055.75;5091043;28;20032;-41
2022/01/14 10:41:11;;;;;;;29.85;15.70;;;;;;;-0.20;66.17;94054.13;5091025;28;20085;-41
2022/01/14 10:43:38;;;;;;;27.88;15.18;;;;;;;-0.34;67.09;94051.34;5091514;28;20115;-41
2022/01/14 10:46:06;;;;;;;30.17;14.70;;;;;;;-0.50;67.54;94052.56;5090918;28;20511;-41
2022/01/14 10:48:38;;;;;;;27.58;15.60;;;;;;;-0.56;68.79;94046.25;5091243;28;20024;-41
2022/01/14 10:51:11;;;;;;;29.90;14.45;;;;;;;-0.22;67.84;94042.97;5090823;28;20028;-41
2022/01/14 10:53:50;;;;;;;31.50;14.93;;;;;;;-0.19;68.59;94038.56;5091107;28;20493;-41
2022/01/14 10:56:19;;;;;;;;;;;;;;;-0.11;68.23;94029.59;5091361;28;20093;-41
2022/01/14 10:58:45;;;;;;;;;;;;;;;0.07;68.90;94031.41;5091590;28;19957;-41
2022/01/14 11:01:19;;;;;;;23.73;11.70;;;;;;;0.04;68.47;94026.16;5090681;28;19962;-41
2022/01/14 11:03:48;;;;;;;17.27;9.43;;;;;;;0.03;68.47;94019.22;5091130;28;20051;-41
2022/01/14 11:06:30;;;;;;;34.60;12.55;;;;;;;0.00;68.44;94015.50;5110070;28;20035;-41
2022/01/14 11:09:00;;;;;;;18.33;10.10;;;;;;;0.19;68.29;94005.97;5111099;28;20036;-43
2022/01/14 11:11:27;;;;;;;20.65;11.05;;;;;;;0.18;68.41;94011.84;5110955;28;20115;-42
2022/01/14 11:13:53;;;;;;;19.67;10.18;;;;;;;0.18;67.65;93985.44;5111220;28;20023;-41
2022/01/14 11:16:19;;;;;;;17.50;10.52;;;;;;;0.27;67.61;93992.75;5098682;28;20585;-41
2022/01/14 11:18:47;;;;;;;22.33;12.00;;;;;;;0.23;68.34;93994.91;5090451;28;20517;-41
2022/01/14 11:23:57;;;;;;;19.77;11.13;;;;;;;0.24;68.24;93983.56;5090690;28;20111;-41
2022/01/14 11:26:29;;;;;;;21.52;11.45;;;;;;;0.27;68.08;93979.91;5089178;28;20099;-41
2022/01/14 11:28:54;;;;;;;21.75;11.90;;;;;;;0.04;68.11;93961.03;5090362;28;20097;-41
2022/01/14 11:31:31;;;;;;;24.48;13.20;;;;;;;0.14;68.44;93974.03;5089106;28;20459;-44
2022/01/14 11:33:58;;;;;;;22.00;11.35;;;;;;;-0.01;68.54;93963.19;5089961;28;20039;-41
2022/01/14 11:36:24;;;;;;;18.17;11.07;;;;;;;0.28;68.20;93967.09;5090323;28;20109;-41
2022/01/14 11:38:50;;;;;;;21.15;10.95;;;;;;;0.27;68.43;93966.34;5090164;28;20059;-41
2022/01/14 11:41:19;;;;;;;23.23;13.13;;;;;;;0.42;67.43;93955.44;5090171;28;20070;-42